sensor_id;sensor_type;location;lat;lon;timestamp;P1;durP1;ratioP1;P2;durP2;ratioP2
31754;SDS011;18325;52.018;4.726;2023-04-24T00:01:29;5.43;;;1.63;;
31754;SDS011;18325;52.018;4.726;2023-04-24T00:03:56;2.40;;;1.60;;
31754;SDS011;18325;52.018;4.726;2023-04-24T00:06:24;2.40;;;1.80;;
31754;SDS011;18325;52.018;4.726;2023-04-24T00:08:58;1.73;;;1.63;;
31754;SDS011;18325;52.018;4.726;2023-04-24T00:11:24;5.03;;;1.93;;
31754;SDS011;18325;52.018;4.726;2023-04-24T00:13:51;3.97;;;2.13;;
31754;SDS011;18325;52.018;4.726;2023-04-24T00:16:19;2.63;;;2.00;;
31754;SDS011;18325;52.018;4.726;2023-04-24T00:18:45;2.47;;;1.80;;
31754;SDS011;18325;52.018;4.726;2023-04-24T00:21:12;2.20;;;1.60;;
31754;SDS011;18325;52.018;4.726;2023-04-24T00:23:39;2.43;;;1.53;;
31754;SDS011;18325;52.018;4.726;2023-04-24T00:26:06;5.40;;;2.27;;
31754;SDS011;18325;52.018;4.726;2023-04-24T00:28:33;6.33;;;2.27;;
31754;SDS011;18325;52.018;4.726;2023-04-24T00:30:59;3.83;;;2.67;;
31754;SDS011;18325;52.018;4.726;2023-04-24T00:33:27;2.37;;;2.03;;
31754;SDS011;18325;52.018;4.726;2023-04-24T00:35:53;4.43;;;2.70;;
31754;SDS011;18325;52.018;4.726;2023-04-24T00:38:20;4.67;;;2.67;;
31754;SDS011;18325;52.018;4.726;2023-04-24T00:40:47;6.77;;;3.40;;
31754;SDS011;18325;52.018;4.726;2023-04-24T00:43:14;3.23;;;2.37;;
31754;SDS011;18325;52.018;4.726;2023-04-24T00:45:41;3.50;;;2.70;;
31754;SDS011;18325;52.018;4.726;2023-04-24T00:48:08;3.33;;;2.50;;
31754;SDS011;18325;52.018;4.726;2023-04-24T00:50:36;4.70;;;2.10;;
31754;SDS011;18325;52.018;4.726;2023-04-24T00:53:04;3.00;;;2.20;;
31754;SDS011;18325;52.018;4.726;2023-04-24T00:55:30;2.10;;;1.73;;
31754;SDS011;18325;52.018;4.726;2023-04-24T00:57:57;2.97;;;2.07;;
31754;SDS011;18325;52.018;4.726;2023-04-24T01:00:23;2.60;;;1.63;;
31754;SDS011;18325;52.018;4.726;2023-04-24T01:02:50;3.60;;;1.67;;
31754;SDS011;18325;52.018;4.726;2023-04-24T01:05:18;2.37;;;1.63;;
31754;SDS011;18325;52.018;4.726;2023-04-24T01:07:46;2.73;;;1.80;;
31754;SDS011;18325;52.018;4.726;2023-04-24T01:10:14;2.90;;;1.87;;
31754;SDS011;18325;52.018;4.726;2023-04-24T01:12:42;2.70;;;2.20;;
31754;SDS011;18325;52.018;4.726;2023-04-24T01:15:09;2.90;;;2.30;;
31754;SDS011;18325;52.018;4.726;2023-04-24T01:17:36;3.07;;;2.10;;
31754;SDS011;18325;52.018;4.726;2023-04-24T01:20:03;4.07;;;1.83;;
31754;SDS011;18325;52.018;4.726;2023-04-24T01:22:33;4.37;;;2.20;;
31754;SDS011;18325;52.018;4.726;2023-04-24T01:24:59;2.20;;;1.67;;
31754;SDS011;18325;52.018;4.726;2023-04-24T01:27:26;4.03;;;2.37;;
31754;SDS011;18325;52.018;4.726;2023-04-24T01:29:52;2.37;;;2.07;;
31754;SDS011;18325;52.018;4.726;2023-04-24T01:32:19;2.93;;;2.00;;
31754;SDS011;18325;52.018;4.726;2023-04-24T01:34:46;4.00;;;2.40;;
31754;SDS011;18325;52.018;4.726;2023-04-24T01:37:12;3.20;;;2.20;;
31754;SDS011;18325;52.018;4.726;2023-04-24T01:39:40;2.03;;;1.50;;
31754;SDS011;18325;52.018;4.726;2023-04-24T01:42:07;2.17;;;1.83;;
31754;SDS011;18325;52.018;4.726;2023-04-24T01:44:33;2.43;;;2.00;;
31754;SDS011;18325;52.018;4.726;2023-04-24T01:47:00;3.13;;;1.63;;
31754;SDS011;18325;52.018;4.726;2023-04-24T01:49:26;1.63;;;1.43;;
31754;SDS011;18325;52.018;4.726;2023-04-24T01:51:53;3.67;;;1.50;;
31754;SDS011;18325;52.018;4.726;2023-04-24T01:54:19;1.50;;;1.07;;
31754;SDS011;18325;52.018;4.726;2023-04-24T01:56:47;2.17;;;1.67;;
31754;SDS011;18325;52.018;4.726;2023-04-24T01:59:14;4.50;;;1.50;;
31754;SDS011;18325;52.018;4.726;2023-04-24T02:01:41;4.07;;;1.50;;
31754;SDS011;18325;52.018;4.726;2023-04-24T02:04:08;2.73;;;1.50;;
31754;SDS011;18325;52.018;4.726;2023-04-24T02:06:34;1.70;;;1.37;;
31754;SDS011;18325;52.018;4.726;2023-04-24T02:09:01;2.40;;;1.50;;
31754;SDS011;18325;52.018;4.726;2023-04-24T02:11:28;3.03;;;1.70;;
31754;SDS011;18325;52.018;4.726;2023-04-24T02:13:56;3.90;;;1.90;;
31754;SDS011;18325;52.018;4.726;2023-04-24T02:16:23;1.97;;;1.43;;
31754;SDS011;18325;52.018;4.726;2023-04-24T02:18:50;4.30;;;1.80;;
31754;SDS011;18325;52.018;4.726;2023-04-24T02:21:16;2.47;;;1.10;;
31754;SDS011;18325;52.018;4.726;2023-04-24T02:23:43;2.43;;;1.47;;
31754;SDS011;18325;52.018;4.726;2023-04-24T02:26:09;2.10;;;1.40;;
31754;SDS011;18325;52.018;4.726;2023-04-24T02:28:36;1.40;;;1.17;;
31754;SDS011;18325;52.018;4.726;2023-04-24T02:31:04;2.33;;;1.40;;
31754;SDS011;18325;52.018;4.726;2023-04-24T02:33:31;2.63;;;1.33;;
31754;SDS011;18325;52.018;4.726;2023-04-24T02:35:57;5.00;;;1.77;;
31754;SDS011;18325;52.018;4.726;2023-04-24T02:38:24;3.07;;;1.53;;
31754;SDS011;18325;52.018;4.726;2023-04-24T02:40:50;2.90;;;1.53;;
31754;SDS011;18325;52.018;4.726;2023-04-24T02:43:17;4.10;;;1.77;;
31754;SDS011;18325;52.018;4.726;2023-04-24T02:45:43;2.10;;;1.60;;
31754;SDS011;18325;52.018;4.726;2023-04-24T02:48:11;3.23;;;1.53;;
31754;SDS011;18325;52.018;4.726;2023-04-24T02:50:37;2.07;;;1.47;;
31754;SDS011;18325;52.018;4.726;2023-04-24T02:53:04;2.60;;;1.93;;
31754;SDS011;18325;52.018;4.726;2023-04-24T02:55:30;3.23;;;1.57;;
31754;SDS011;18325;52.018;4.726;2023-04-24T02:57:57;3.17;;;1.90;;
31754;SDS011;18325;52.018;4.726;2023-04-24T03:00:23;2.83;;;1.80;;
31754;SDS011;18325;52.018;4.726;2023-04-24T03:02:50;2.53;;;1.70;;
31754;SDS011;18325;52.018;4.726;2023-04-24T03:05:18;2.67;;;1.60;;
31754;SDS011;18325;52.018;4.726;2023-04-24T03:07:44;3.30;;;2.00;;
31754;SDS011;18325;52.018;4.726;2023-04-24T03:10:11;2.77;;;1.70;;
31754;SDS011;18325;52.018;4.726;2023-04-24T03:12:37;3.27;;;1.70;;
31754;SDS011;18325;52.018;4.726;2023-04-24T03:15:04;1.80;;;1.50;;
31754;SDS011;18325;52.018;4.726;2023-04-24T03:17:31;1.73;;;1.30;;
31754;SDS011;18325;52.018;4.726;2023-04-24T03:19:57;1.80;;;1.13;;
31754;SDS011;18325;52.018;4.726;2023-04-24T03:22:25;1.00;;;0.60;;
31754;SDS011;18325;52.018;4.726;2023-04-24T03:24:51;1.60;;;0.87;;
31754;SDS011;18325;52.018;4.726;2023-04-24T03:27:19;0.83;;;0.63;;
31754;SDS011;18325;52.018;4.726;2023-04-24T03:29:46;0.43;;;0.43;;
31754;SDS011;18325;52.018;4.726;2023-04-24T03:32:12;0.60;;;0.60;;
31754;SDS011;18325;52.018;4.726;2023-04-24T03:34:38;0.37;;;0.33;;
31754;SDS011;18325;52.018;4.726;2023-04-24T03:37:05;0.60;;;0.60;;
31754;SDS011;18325;52.018;4.726;2023-04-24T03:39:33;1.40;;;0.40;;
31754;SDS011;18325;52.018;4.726;2023-04-24T03:41:59;0.47;;;0.47;;
31754;SDS011;18325;52.018;4.726;2023-04-24T03:44:26;1.23;;;0.43;;
31754;SDS011;18325;52.018;4.726;2023-04-24T03:46:52;0.40;;;0.40;;
31754;SDS011;18325;52.018;4.726;2023-04-24T03:49:19;3.30;;;0.50;;
31754;SDS011;18325;52.018;4.726;2023-04-24T03:51:45;0.30;;;0.30;;
31754;SDS011;18325;52.018;4.726;2023-04-24T03:54:11;0.70;;;0.40;;
31754;SDS011;18325;52.018;4.726;2023-04-24T03:56:40;1.07;;;0.57;;
31754;SDS011;18325;52.018;4.726;2023-04-24T03:59:06;0.23;;;0.23;;
31754;SDS011;18325;52.018;4.726;2023-04-24T04:01:32;0.30;;;0.30;;
31754;SDS011;18325;52.018;4.726;2023-04-24T04:04:01;0.37;;;0.33;;
31754;SDS011;18325;52.018;4.726;2023-04-24T04:06:28;1.30;;;0.43;;
31754;SDS011;18325;52.018;4.726;2023-04-24T04:08:55;2.77;;;0.80;;
31754;SDS011;18325;52.018;4.726;2023-04-24T04:11:22;0.50;;;0.50;;
31754;SDS011;18325;52.018;4.726;2023-04-24T04:13:50;0.60;;;0.53;;
31754;SDS011;18325;52.018;4.726;2023-04-24T04:16:16;1.67;;;0.50;;
31754;SDS011;18325;52.018;4.726;2023-04-24T04:18:43;0.23;;;0.23;;
31754;SDS011;18325;52.018;4.726;2023-04-24T04:21:09;0.30;;;0.30;;
31754;SDS011;18325;52.018;4.726;2023-04-24T04:23:36;0.40;;;0.40;;
31754;SDS011;18325;52.018;4.726;2023-04-24T04:26:03;0.87;;;0.60;;
31754;SDS011;18325;52.018;4.726;2023-04-24T04:28:30;1.53;;;0.40;;
31754;SDS011;18325;52.018;4.726;2023-04-24T04:30:58;0.40;;;0.37;;
31754;SDS011;18325;52.018;4.726;2023-04-24T04:33:25;0.90;;;0.60;;
31754;SDS011;18325;52.018;4.726;2023-04-24T04:35:53;0.77;;;0.60;;
31754;SDS011;18325;52.018;4.726;2023-04-24T04:38:21;1.83;;;0.80;;
31754;SDS011;18325;52.018;4.726;2023-04-24T04:40:48;0.97;;;0.53;;
31754;SDS011;18325;52.018;4.726;2023-04-24T04:43:14;0.70;;;0.50;;
31754;SDS011;18325;52.018;4.726;2023-04-24T04:45:41;0.77;;;0.60;;
31754;SDS011;18325;52.018;4.726;2023-04-24T04:48:09;0.60;;;0.50;;
31754;SDS011;18325;52.018;4.726;2023-04-24T04:50:38;0.80;;;0.60;;
31754;SDS011;18325;52.018;4.726;2023-04-24T04:53:04;0.60;;;0.60;;
31754;SDS011;18325;52.018;4.726;2023-04-24T04:55:31;0.57;;;0.57;;
31754;SDS011;18325;52.018;4.726;2023-04-24T04:57:58;0.47;;;0.47;;
31754;SDS011;18325;52.018;4.726;2023-04-24T05:00:25;1.53;;;0.60;;
31754;SDS011;18325;52.018;4.726;2023-04-24T05:02:52;0.77;;;0.70;;
31754;SDS011;18325;52.018;4.726;2023-04-24T05:05:20;1.13;;;0.73;;
31754;SDS011;18325;52.018;4.726;2023-04-24T05:07:46;0.77;;;0.60;;
31754;SDS011;18325;52.018;4.726;2023-04-24T05:10:13;0.70;;;0.70;;
31754;SDS011;18325;52.018;4.726;2023-04-24T05:12:39;2.63;;;1.20;;
31754;SDS011;18325;52.018;4.726;2023-04-24T05:15:06;2.50;;;1.83;;
31754;SDS011;18325;52.018;4.726;2023-04-24T05:17:33;2.20;;;1.63;;
31754;SDS011;18325;52.018;4.726;2023-04-24T05:19:59;4.80;;;1.90;;
31754;SDS011;18325;52.018;4.726;2023-04-24T05:22:28;2.47;;;1.40;;
31754;SDS011;18325;52.018;4.726;2023-04-24T05:24:54;3.60;;;2.23;;
31754;SDS011;18325;52.018;4.726;2023-04-24T05:27:20;3.33;;;2.10;;
31754;SDS011;18325;52.018;4.726;2023-04-24T05:29:47;5.27;;;2.70;;
31754;SDS011;18325;52.018;4.726;2023-04-24T05:32:13;8.27;;;2.80;;
31754;SDS011;18325;52.018;4.726;2023-04-24T05:34:39;8.40;;;3.43;;
31754;SDS011;18325;52.018;4.726;2023-04-24T05:37:06;6.67;;;4.17;;
31754;SDS011;18325;52.018;4.726;2023-04-24T05:39:36;10.33;;;4.73;;
31754;SDS011;18325;52.018;4.726;2023-04-24T05:42:02;13.13;;;5.27;;
31754;SDS011;18325;52.018;4.726;2023-04-24T05:44:30;12.03;;;5.50;;
31754;SDS011;18325;52.018;4.726;2023-04-24T05:46:56;14.73;;;6.23;;
31754;SDS011;18325;52.018;4.726;2023-04-24T05:49:23;14.83;;;7.40;;
31754;SDS011;18325;52.018;4.726;2023-04-24T05:51:49;13.57;;;6.37;;
31754;SDS011;18325;52.018;4.726;2023-04-24T05:54:15;14.67;;;6.23;;
31754;SDS011;18325;52.018;4.726;2023-04-24T05:56:43;10.50;;;6.60;;
31754;SDS011;18325;52.018;4.726;2023-04-24T05:59:09;14.47;;;6.83;;
31754;SDS011;18325;52.018;4.726;2023-04-24T06:01:36;9.57;;;6.63;;
31754;SDS011;18325;52.018;4.726;2023-04-24T06:04:03;15.20;;;6.27;;
31754;SDS011;18325;52.018;4.726;2023-04-24T06:06:29;13.87;;;6.10;;
31754;SDS011;18325;52.018;4.726;2023-04-24T06:08:57;12.73;;;5.87;;
31754;SDS011;18325;52.018;4.726;2023-04-24T06:11:24;18.93;;;6.10;;
31754;SDS011;18325;52.018;4.726;2023-04-24T06:13:55;13.67;;;6.60;;
31754;SDS011;18325;52.018;4.726;2023-04-24T06:16:23;15.90;;;5.97;;
31754;SDS011;18325;52.018;4.726;2023-04-24T06:18:50;11.93;;;5.77;;
31754;SDS011;18325;52.018;4.726;2023-04-24T06:21:16;15.20;;;6.73;;
31754;SDS011;18325;52.018;4.726;2023-04-24T06:23:43;11.80;;;5.97;;
31754;SDS011;18325;52.018;4.726;2023-04-24T06:26:11;17.00;;;5.90;;
31754;SDS011;18325;52.018;4.726;2023-04-24T06:28:37;15.63;;;6.17;;
31754;SDS011;18325;52.018;4.726;2023-04-24T06:31:05;8.63;;;4.97;;
31754;SDS011;18325;52.018;4.726;2023-04-24T06:33:32;11.10;;;4.57;;
31754;SDS011;18325;52.018;4.726;2023-04-24T06:35:58;9.13;;;4.10;;
31754;SDS011;18325;52.018;4.726;2023-04-24T06:38:24;11.43;;;4.80;;
31754;SDS011;18325;52.018;4.726;2023-04-24T06:40:51;17.13;;;4.80;;
31754;SDS011;18325;52.018;4.726;2023-04-24T06:43:17;15.50;;;5.07;;
31754;SDS011;18325;52.018;4.726;2023-04-24T06:45:44;9.10;;;4.40;;
31754;SDS011;18325;52.018;4.726;2023-04-24T06:48:13;23.33;;;4.80;;
31754;SDS011;18325;52.018;4.726;2023-04-24T06:50:40;13.57;;;3.40;;
31754;SDS011;18325;52.018;4.726;2023-04-24T06:53:06;12.53;;;4.23;;
31754;SDS011;18325;52.018;4.726;2023-04-24T06:55:33;9.50;;;3.37;;
31754;SDS011;18325;52.018;4.726;2023-04-24T06:57:59;9.17;;;3.57;;
31754;SDS011;18325;52.018;4.726;2023-04-24T07:00:26;9.37;;;3.30;;
31754;SDS011;18325;52.018;4.726;2023-04-24T07:02:52;6.87;;;3.57;;
31754;SDS011;18325;52.018;4.726;2023-04-24T07:05:20;10.37;;;3.63;;
31754;SDS011;18325;52.018;4.726;2023-04-24T07:07:46;9.63;;;3.37;;
31754;SDS011;18325;52.018;4.726;2023-04-24T07:10:14;18.20;;;4.07;;
31754;SDS011;18325;52.018;4.726;2023-04-24T07:12:40;17.23;;;3.37;;
31754;SDS011;18325;52.018;4.726;2023-04-24T07:15:07;7.93;;;3.10;;
31754;SDS011;18325;52.018;4.726;2023-04-24T07:17:35;7.43;;;2.77;;
31754;SDS011;18325;52.018;4.726;2023-04-24T07:20:03;9.33;;;2.27;;
31754;SDS011;18325;52.018;4.726;2023-04-24T07:22:45;9.43;;;2.30;;
31754;SDS011;18325;52.018;4.726;2023-04-24T07:25:27;15.60;;;3.03;;
31754;SDS011;18325;52.018;4.726;2023-04-24T07:28:15;6.37;;;2.23;;
31754;SDS011;18325;52.018;4.726;2023-04-24T07:33:49;8.60;;;2.70;;
31754;SDS011;18325;52.018;4.726;2023-04-24T07:36:49;5.83;;;2.53;;
31754;SDS011;18325;52.018;4.726;2023-04-24T07:39:50;4.93;;;2.23;;
31754;SDS011;18325;52.018;4.726;2023-04-24T07:42:42;9.43;;;2.60;;
31754;SDS011;18325;52.018;4.726;2023-04-24T07:45:40;9.57;;;2.43;;
31754;SDS011;18325;52.018;4.726;2023-04-24T07:48:27;9.83;;;2.23;;
31754;SDS011;18325;52.018;4.726;2023-04-24T07:51:26;10.03;;;2.40;;
31754;SDS011;18325;52.018;4.726;2023-04-24T07:54:19;9.73;;;2.10;;
31754;SDS011;18325;52.018;4.726;2023-04-24T07:57:30;5.73;;;1.80;;
31754;SDS011;18325;52.018;4.726;2023-04-24T08:00:47;3.97;;;1.73;;
31754;SDS011;18325;52.018;4.726;2023-04-24T08:03:33;3.57;;;1.80;;
31754;SDS011;18325;52.018;4.726;2023-04-24T08:06:23;7.80;;;2.33;;
31754;SDS011;18325;52.018;4.726;2023-04-24T08:09:17;3.93;;;1.80;;
31754;SDS011;18325;52.018;4.726;2023-04-24T08:12:40;10.53;;;2.27;;
31754;SDS011;18325;52.018;4.726;2023-04-24T08:15:36;8.47;;;2.70;;
31754;SDS011;18325;52.018;4.726;2023-04-24T08:18:27;6.67;;;1.90;;
31754;SDS011;18325;52.018;4.726;2023-04-24T08:21:10;7.60;;;1.80;;
31754;SDS011;18325;52.018;4.726;2023-04-24T08:24:01;12.63;;;2.00;;
31754;SDS011;18325;52.018;4.726;2023-04-24T08:26:53;12.13;;;1.90;;
31754;SDS011;18325;52.018;4.726;2023-04-24T08:30:06;3.63;;;1.63;;
31754;SDS011;18325;52.018;4.726;2023-04-24T08:33:48;6.03;;;1.60;;
31754;SDS011;18325;52.018;4.726;2023-04-24T08:36:46;7.70;;;1.97;;
31754;SDS011;18325;52.018;4.726;2023-04-24T08:39:34;9.10;;;1.80;;
31754;SDS011;18325;52.018;4.726;2023-04-24T08:45:17;6.03;;;1.53;;
31754;SDS011;18325;52.018;4.726;2023-04-24T08:48:20;3.80;;;1.57;;
31754;SDS011;18325;52.018;4.726;2023-04-24T08:51:12;8.97;;;1.87;;
31754;SDS011;18325;52.018;4.726;2023-04-24T08:54:05;6.33;;;1.60;;
31754;SDS011;18325;52.018;4.726;2023-04-24T08:56:57;7.23;;;2.00;;
31754;SDS011;18325;52.018;4.726;2023-04-24T08:59:55;6.97;;;1.60;;
31754;SDS011;18325;52.018;4.726;2023-04-24T09:03:34;4.27;;;1.30;;
31754;SDS011;18325;52.018;4.726;2023-04-24T09:06:22;4.00;;;1.33;;
31754;SDS011;18325;52.018;4.726;2023-04-24T09:09:06;6.03;;;1.17;;
31754;SDS011;18325;52.018;4.726;2023-04-24T09:11:54;8.03;;;1.93;;
31754;SDS011;18325;52.018;4.726;2023-04-24T09:14:46;6.40;;;2.03;;
31754;SDS011;18325;52.018;4.726;2023-04-24T09:17:48;6.10;;;1.43;;
31754;SDS011;18325;52.018;4.726;2023-04-24T09:20:46;3.37;;;1.47;;
31754;SDS011;18325;52.018;4.726;2023-04-24T09:26:25;3.23;;;0.97;;
31754;SDS011;18325;52.018;4.726;2023-04-24T09:29:21;4.33;;;1.20;;
31754;SDS011;18325;52.018;4.726;2023-04-24T09:32:28;3.80;;;0.87;;
31754;SDS011;18325;52.018;4.726;2023-04-24T09:36:03;4.13;;;1.43;;
31754;SDS011;18325;52.018;4.726;2023-04-24T09:39:07;3.57;;;0.70;;
31754;SDS011;18325;52.018;4.726;2023-04-24T09:42:05;2.20;;;0.90;;
31754;SDS011;18325;52.018;4.726;2023-04-24T09:48:00;4.10;;;0.90;;
31754;SDS011;18325;52.018;4.726;2023-04-24T09:51:08;3.63;;;0.80;;
31754;SDS011;18325;52.018;4.726;2023-04-24T09:53:48;2.13;;;0.47;;
31754;SDS011;18325;52.018;4.726;2023-04-24T10:03:49;1.50;;;0.60;;
31754;SDS011;18325;52.018;4.726;2023-04-24T10:07:02;2.73;;;1.20;;
31754;SDS011;18325;52.018;4.726;2023-04-24T10:09:57;4.13;;;1.10;;
31754;SDS011;18325;52.018;4.726;2023-04-24T10:12:56;1.03;;;0.50;;
31754;SDS011;18325;52.018;4.726;2023-04-24T10:19:22;3.33;;;0.70;;
31754;SDS011;18325;52.018;4.726;2023-04-24T10:25:31;1.70;;;0.70;;
31754;SDS011;18325;52.018;4.726;2023-04-24T10:28:30;1.27;;;0.60;;
31754;SDS011;18325;52.018;4.726;2023-04-24T10:31:28;0.77;;;0.60;;
31754;SDS011;18325;52.018;4.726;2023-04-24T10:34:15;1.27;;;0.97;;
31754;SDS011;18325;52.018;4.726;2023-04-24T10:37:14;3.13;;;0.67;;
31754;SDS011;18325;52.018;4.726;2023-04-24T10:40:24;1.50;;;0.53;;
31754;SDS011;18325;52.018;4.726;2023-04-24T10:43:18;4.63;;;0.70;;
31754;SDS011;18325;52.018;4.726;2023-04-24T10:46:28;0.77;;;0.50;;
31754;SDS011;18325;52.018;4.726;2023-04-24T10:49:38;3.83;;;1.07;;
31754;SDS011;18325;52.018;4.726;2023-04-24T10:52:46;1.80;;;0.80;;
31754;SDS011;18325;52.018;4.726;2023-04-24T10:56:15;2.67;;;0.83;;
31754;SDS011;18325;52.018;4.726;2023-04-24T10:59:12;1.93;;;0.73;;
31754;SDS011;18325;52.018;4.726;2023-04-24T11:02:14;2.63;;;1.13;;
31754;SDS011;18325;52.018;4.726;2023-04-24T11:11:38;3.20;;;0.80;;
31754;SDS011;18325;52.018;4.726;2023-04-24T11:21:32;2.47;;;0.77;;
31754;SDS011;18325;52.018;4.726;2023-04-24T11:24:40;5.83;;;1.07;;
31754;SDS011;18325;52.018;4.726;2023-04-24T11:34:35;3.10;;;0.90;;
31754;SDS011;18325;52.018;4.726;2023-04-24T11:38:20;2.53;;;0.57;;
31754;SDS011;18325;52.018;4.726;2023-04-24T11:41:47;2.00;;;0.60;;
31754;SDS011;18325;52.018;4.726;2023-04-24T11:44:56;2.03;;;0.87;;
31754;SDS011;18325;52.018;4.726;2023-04-24T11:54:13;7.63;;;0.93;;
31754;SDS011;18325;52.018;4.726;2023-04-24T11:57:09;2.97;;;1.10;;
31754;SDS011;18325;52.018;4.726;2023-04-24T11:59:50;2.47;;;0.70;;
31754;SDS011;18325;52.018;4.726;2023-04-24T12:10:00;3.77;;;1.33;;
31754;SDS011;18325;52.018;4.726;2023-04-24T12:23:06;4.57;;;1.23;;
31754;SDS011;18325;52.018;4.726;2023-04-24T12:36:56;9.60;;;1.70;;
31754;SDS011;18325;52.018;4.726;2023-04-24T12:40:19;5.97;;;1.37;;
31754;SDS011;18325;52.018;4.726;2023-04-24T12:43:16;5.97;;;1.07;;
31754;SDS011;18325;52.018;4.726;2023-04-24T12:46:09;6.20;;;1.60;;
31754;SDS011;18325;52.018;4.726;2023-04-24T12:49:12;2.70;;;1.40;;
31754;SDS011;18325;52.018;4.726;2023-04-24T12:55:49;6.70;;;1.73;;
31754;SDS011;18325;52.018;4.726;2023-04-24T12:58:56;6.97;;;2.03;;
31754;SDS011;18325;52.018;4.726;2023-04-24T13:02:02;2.80;;;1.37;;
31754;SDS011;18325;52.018;4.726;2023-04-24T13:04:58;4.37;;;1.80;;
31754;SDS011;18325;52.018;4.726;2023-04-24T13:07:51;5.30;;;1.87;;
31754;SDS011;18325;52.018;4.726;2023-04-24T13:11:00;2.90;;;1.50;;
31754;SDS011;18325;52.018;4.726;2023-04-24T13:13:37;5.80;;;1.70;;
31754;SDS011;18325;52.018;4.726;2023-04-24T13:16:34;10.60;;;2.07;;
31754;SDS011;18325;52.018;4.726;2023-04-24T13:19:21;13.90;;;1.70;;
31754;SDS011;18325;52.018;4.726;2023-04-24T13:22:30;4.13;;;1.63;;
31754;SDS011;18325;52.018;4.726;2023-04-24T13:25:11;5.47;;;2.13;;
31754;SDS011;18325;52.018;4.726;2023-04-24T13:28:22;8.50;;;2.00;;
31754;SDS011;18325;52.018;4.726;2023-04-24T13:31:16;9.43;;;2.10;;
31754;SDS011;18325;52.018;4.726;2023-04-24T13:34:33;3.93;;;1.40;;
31754;SDS011;18325;52.018;4.726;2023-04-24T13:37:32;7.73;;;1.50;;
31754;SDS011;18325;52.018;4.726;2023-04-24T13:40:28;9.37;;;1.87;;
31754;SDS011;18325;52.018;4.726;2023-04-24T13:43:26;3.20;;;1.60;;
31754;SDS011;18325;52.018;4.726;2023-04-24T13:46:03;6.30;;;1.77;;
31754;SDS011;18325;52.018;4.726;2023-04-24T13:48:51;4.37;;;1.83;;
31754;SDS011;18325;52.018;4.726;2023-04-24T13:51:45;7.60;;;1.97;;
31754;SDS011;18325;52.018;4.726;2023-04-24T13:54:40;6.43;;;1.80;;
31754;SDS011;18325;52.018;4.726;2023-04-24T13:57:34;3.53;;;1.20;;
31754;SDS011;18325;52.018;4.726;2023-04-24T14:00:39;4.43;;;1.57;;
31754;SDS011;18325;52.018;4.726;2023-04-24T14:03:37;6.40;;;1.47;;
31754;SDS011;18325;52.018;4.726;2023-04-24T14:06:37;8.17;;;2.20;;
31754;SDS011;18325;52.018;4.726;2023-04-24T14:09:30;6.40;;;1.60;;
31754;SDS011;18325;52.018;4.726;2023-04-24T14:12:06;7.40;;;2.10;;
31754;SDS011;18325;52.018;4.726;2023-04-24T14:14:55;5.97;;;2.17;;
31754;SDS011;18325;52.018;4.726;2023-04-24T14:17:57;3.97;;;1.97;;
31754;SDS011;18325;52.018;4.726;2023-04-24T14:21:02;5.13;;;2.07;;
31754;SDS011;18325;52.018;4.726;2023-04-24T14:23:38;5.33;;;2.00;;
31754;SDS011;18325;52.018;4.726;2023-04-24T14:26:28;3.57;;;2.00;;
31754;SDS011;18325;52.018;4.726;2023-04-24T14:29:25;6.37;;;2.27;;
31754;SDS011;18325;52.018;4.726;2023-04-24T14:32:23;8.87;;;2.33;;
31754;SDS011;18325;52.018;4.726;2023-04-24T14:35:27;7.93;;;2.67;;
31754;SDS011;18325;52.018;4.726;2023-04-24T14:38:25;13.97;;;3.00;;
31754;SDS011;18325;52.018;4.726;2023-04-24T14:41:14;3.70;;;1.80;;
31754;SDS011;18325;52.018;4.726;2023-04-24T14:44:13;10.17;;;2.30;;
31754;SDS011;18325;52.018;4.726;2023-04-24T14:47:07;7.90;;;2.50;;
31754;SDS011;18325;52.018;4.726;2023-04-24T14:50:04;5.83;;;2.20;;
31754;SDS011;18325;52.018;4.726;2023-04-24T14:53:01;8.13;;;2.90;;
31754;SDS011;18325;52.018;4.726;2023-04-24T14:56:07;11.67;;;3.10;;
31754;SDS011;18325;52.018;4.726;2023-04-24T14:59:09;6.70;;;2.23;;
31754;SDS011;18325;52.018;4.726;2023-04-24T15:02:10;11.53;;;2.70;;
31754;SDS011;18325;52.018;4.726;2023-04-24T15:04:49;7.63;;;2.70;;
31754;SDS011;18325;52.018;4.726;2023-04-24T15:07:47;9.87;;;2.63;;
31754;SDS011;18325;52.018;4.726;2023-04-24T15:10:48;7.97;;;2.47;;
31754;SDS011;18325;52.018;4.726;2023-04-24T15:13:35;7.37;;;2.60;;
31754;SDS011;18325;52.018;4.726;2023-04-24T15:16:31;7.23;;;1.77;;
31754;SDS011;18325;52.018;4.726;2023-04-24T15:19:17;4.43;;;1.80;;
31754;SDS011;18325;52.018;4.726;2023-04-24T15:22:01;3.73;;;2.10;;
31754;SDS011;18325;52.018;4.726;2023-04-24T15:25:18;13.83;;;2.20;;
31754;SDS011;18325;52.018;4.726;2023-04-24T15:28:06;5.53;;;1.80;;
31754;SDS011;18325;52.018;4.726;2023-04-24T15:30:55;10.57;;;2.47;;
31754;SDS011;18325;52.018;4.726;2023-04-24T15:33:34;8.60;;;2.33;;
31754;SDS011;18325;52.018;4.726;2023-04-24T15:36:10;6.40;;;2.17;;
31754;SDS011;18325;52.018;4.726;2023-04-24T15:38:36;6.47;;;2.33;;
31754;SDS011;18325;52.018;4.726;2023-04-24T15:41:04;9.67;;;2.83;;
31754;SDS011;18325;52.018;4.726;2023-04-24T15:43:34;4.43;;;2.20;;
31754;SDS011;18325;52.018;4.726;2023-04-24T15:46:01;7.77;;;3.20;;
31754;SDS011;18325;52.018;4.726;2023-04-24T15:48:28;4.27;;;1.97;;
31754;SDS011;18325;52.018;4.726;2023-04-24T15:50:55;7.43;;;2.47;;
31754;SDS011;18325;52.018;4.726;2023-04-24T15:53:22;15.47;;;2.63;;
31754;SDS011;18325;52.018;4.726;2023-04-24T15:55:48;4.40;;;2.30;;
31754;SDS011;18325;52.018;4.726;2023-04-24T15:58:17;10.87;;;2.97;;
31754;SDS011;18325;52.018;4.726;2023-04-24T16:00:45;10.53;;;2.67;;
31754;SDS011;18325;52.018;4.726;2023-04-24T16:03:21;8.07;;;2.77;;
31754;SDS011;18325;52.018;4.726;2023-04-24T16:05:47;5.47;;;2.13;;
31754;SDS011;18325;52.018;4.726;2023-04-24T16:08:14;6.97;;;2.97;;
31754;SDS011;18325;52.018;4.726;2023-04-24T16:10:42;7.43;;;2.37;;
31754;SDS011;18325;52.018;4.726;2023-04-24T16:13:12;6.53;;;2.03;;
31754;SDS011;18325;52.018;4.726;2023-04-24T16:15:40;7.00;;;2.60;;
31754;SDS011;18325;52.018;4.726;2023-04-24T16:18:07;7.00;;;2.93;;
31754;SDS011;18325;52.018;4.726;2023-04-24T16:20:48;6.20;;;2.30;;
31754;SDS011;18325;52.018;4.726;2023-04-24T16:23:17;5.23;;;1.97;;
31754;SDS011;18325;52.018;4.726;2023-04-24T16:25:46;13.03;;;2.80;;
31754;SDS011;18325;52.018;4.726;2023-04-24T16:28:12;10.17;;;2.40;;
31754;SDS011;18325;52.018;4.726;2023-04-24T16:30:40;5.50;;;2.30;;
31754;SDS011;18325;52.018;4.726;2023-04-24T16:33:06;5.00;;;2.37;;
31754;SDS011;18325;52.018;4.726;2023-04-24T16:35:34;11.33;;;2.67;;
31754;SDS011;18325;52.018;4.726;2023-04-24T16:38:01;9.63;;;2.93;;
31754;SDS011;18325;52.018;4.726;2023-04-24T16:40:28;6.03;;;2.23;;
31754;SDS011;18325;52.018;4.726;2023-04-24T16:42:55;10.50;;;2.70;;
31754;SDS011;18325;52.018;4.726;2023-04-24T16:45:22;8.77;;;2.43;;
31754;SDS011;18325;52.018;4.726;2023-04-24T16:47:49;9.20;;;2.77;;
31754;SDS011;18325;52.018;4.726;2023-04-24T16:50:16;11.70;;;2.87;;
31754;SDS011;18325;52.018;4.726;2023-04-24T16:52:42;12.73;;;2.73;;
31754;SDS011;18325;52.018;4.726;2023-04-24T16:55:09;8.00;;;2.50;;
31754;SDS011;18325;52.018;4.726;2023-04-24T16:57:35;16.27;;;3.90;;
31754;SDS011;18325;52.018;4.726;2023-04-24T17:00:02;7.10;;;2.33;;
31754;SDS011;18325;52.018;4.726;2023-04-24T17:02:29;7.23;;;2.50;;
31754;SDS011;18325;52.018;4.726;2023-04-24T17:04:57;8.00;;;2.67;;
31754;SDS011;18325;52.018;4.726;2023-04-24T17:07:23;5.40;;;2.87;;
31754;SDS011;18325;52.018;4.726;2023-04-24T17:09:49;10.03;;;2.63;;
31754;SDS011;18325;52.018;4.726;2023-04-24T17:12:16;8.70;;;2.77;;
31754;SDS011;18325;52.018;4.726;2023-04-24T17:14:42;6.33;;;2.43;;
31754;SDS011;18325;52.018;4.726;2023-04-24T17:17:09;14.47;;;3.27;;
31754;SDS011;18325;52.018;4.726;2023-04-24T17:19:35;10.77;;;2.47;;